Portada
METAR-TAF:

METAR-TAF

Aeroports :

Nanning, Xina

latitud: 22-49N, longitud: 108-21E, altitud: 73 m

Observació

L'informe es va fer fa 1 hora i 16 minuts, a les 11:00 UTC
Vent 8 kt del Sud-Est
Temperatura 31°C
Humitat 71%
Pressió 1006 hPa
Visibilitat 10 km o més
Escasses núvols a una alçada de 2600 ft, Cumulonimbus.
Núvols disperses a una alçada de 4000 ft

METAR: ZGNN 161100Z 14004MPS 9999 FEW026CB SCT040 31/25 Q1006 BECMG TL1150 SCT033

Hora: 20:16 (12:16 UTC)

Pronòstic

L'informe es va fer fa 3 hores i 9 minuts, a les 09:07 UTC
Pronòstic vàlid del 16 a les 12 UTC al 17 a les 12 UTC
Vent 6 kt del Sud-Est
Visibilitat: 7000 m
Núvols disperses a una alçada de 3300 ft
Temporalment
l' 17 a les 05 UTC al 17 a les 09 UTC
Núvols disperses a una alçada de 1000 ft
Escasses núvols a una alçada de 2600 ft, Cumulonimbus.
Cel ennuvolat a una alçada de 3000 ft
tempesta, pluja,

TAF: ZGNN 160907Z 1612/1712 14003MPS 7000 SCT033 TX34/1707Z TN26/1622Z TEMPO 1705/1709 TSRA SCT010 FEW026CB BKN030

Observacions i pronòstics meteorològics de més de 4000 aeroports (METAR i TAF).

Les estacions disponibles són els punts grocs i vermells al mapa.

Posi el ratolí al punt desitjat per veure el nom de l'estació.

Feu clic per veure les observacions i els pronòstics meteorològics.

Per canviar el mapa: feu clic els botons verds amb una creu de color negre per apropar; al botó verd amb un guió per allunyar la imatge; o en les fletxes verdes per a mapes adjacents.


METAR-TAF: